Time;durP1;ratioP1;P1;durP2;ratioP2;P2;SDS_P1;SDS_P2;PMS_P1;PMS_P2;Temp;Humidity;BMP_temperature;BMP_pressure;BME280_temperature;BME280_humidity;BME280_pressure;Samples;Min_cycle;Max_cycle;Signal;HPM_P1;HPM_P2
2023/12/09 00:00:16;;;;;;;13.73;6.03;;;7.50;99.90;;;;;;5099309;28;20307;-50
2023/12/09 00:02:41;;;;;;;9.75;3.50;;;7.60;99.90;;;;;;5094270;28;20210;-52
2023/12/09 00:05:07;;;;;;;11.02;4.25;;;7.60;99.90;;;;;;5094528;28;20250;-52
2023/12/09 00:07:32;;;;;;;5.93;3.00;;;7.50;99.90;;;;;;5075935;28;20165;-49
2023/12/09 00:09:58;;;;;;;31.08;17.48;;;7.50;99.90;;;;;;5102611;28;20717;-52
2023/12/09 00:12:23;;;;;;;12.48;5.18;;;7.50;99.90;;;;;;5114338;28;20640;-50
2023/12/09 00:14:49;;;;;;;13.02;5.47;;;7.40;99.90;;;;;;5114426;28;20504;-52
2023/12/09 00:17:15;;;;;;;12.65;4.90;;;7.40;99.90;;;;;;5114175;28;20180;-52
2023/12/09 00:19:40;;;;;;;12.95;4.85;;;7.40;99.90;;;;;;5108026;28;20170;-53
2023/12/09 00:22:06;;;;;;;13.65;4.10;;;7.50;99.90;;;;;;5094223;28;20180;-52
2023/12/09 00:24:31;;;;;;;8.18;3.33;;;7.40;99.90;;;;;;5093704;28;20226;-49
2023/12/09 00:26:57;;;;;;;12.90;4.10;;;7.50;99.90;;;;;;5093824;28;20183;-52
2023/12/09 00:29:22;;;;;;;9.35;4.63;;;7.40;99.90;;;;;;5093904;28;20201;-52
2023/12/09 00:31:48;;;;;;;11.27;4.95;;;7.30;99.90;;;;;;5093606;28;20165;-52
2023/12/09 00:34:13;;;;;;;15.48;5.63;;;7.30;99.90;;;;;;5093560;28;20692;-52
2023/12/09 00:36:39;;;;;;;13.65;4.45;;;7.60;99.90;;;;;;5093498;28;20635;-47
2023/12/09 00:39:05;;;;;;;15.02;4.88;;;7.50;99.90;;;;;;5094316;28;20173;-52
2023/12/09 00:41:30;;;;;;;15.70;4.10;;;7.40;99.90;;;;;;5114064;28;20168;-51
2023/12/09 00:43:56;;;;;;;11.75;3.42;;;7.50;99.90;;;;;;5113867;28;20503;-52
2023/12/09 00:46:22;;;;;;;9.52;3.88;;;7.50;99.90;;;;;;5113666;28;20538;-52
2023/12/09 00:48:47;;;;;;;10.25;3.30;;;7.50;99.90;;;;;;5113577;28;20852;-51
2023/12/09 00:51:13;;;;;;;15.55;3.80;;;7.70;99.90;;;;;;5094661;28;20182;-52
2023/12/09 00:53:39;;;;;;;12.98;4.30;;;7.50;99.90;;;;;;5093167;28;20173;-46
2023/12/09 00:56:05;;;;;;;8.93;2.83;;;7.40;99.90;;;;;;5093029;28;20222;-51
2023/12/09 00:58:30;;;;;;;9.70;3.08;;;7.50;99.90;;;;;;5074896;28;20218;-51
2023/12/09 01:00:56;;;;;;;11.52;3.40;;;7.50;99.90;;;;;;5093316;28;20226;-50
2023/12/09 01:03:22;;;;;;;10.05;3.38;;;7.70;99.90;;;;;;5092621;28;20169;-52
2023/12/09 01:05:47;;;;;;;6.32;3.65;;;7.80;99.90;;;;;;5092803;28;20570;-49
2023/12/09 01:08:13;;;;;;;12.82;3.40;;;7.80;99.90;;;;;;5092856;28;20626;-51
2023/12/09 01:10:39;;;;;;;11.35;3.65;;;7.80;99.90;;;;;;5088296;28;20169;-52
2023/12/09 01:13:04;;;;;;;7.50;3.05;;;7.80;99.90;;;;;;5113584;28;20218;-52
2023/12/09 01:15:30;;;;;;;16.90;3.70;;;8.00;99.90;;;;;;5113100;28;20244;-52
2023/12/09 01:17:55;;;;;;;12.43;3.03;;;8.00;99.90;;;;;;5113102;28;20199;-52
2023/12/09 01:20:21;;;;;;;10.57;3.35;;;8.00;99.90;;;;;;5102119;28;20177;-52
2023/12/09 01:22:47;;;;;;;16.00;3.40;;;8.00;99.90;;;;;;5092944;28;20184;-52
2023/12/09 01:25:12;;;;;;;16.70;4.00;;;8.00;99.90;;;;;;5092600;28;20169;-51
2023/12/09 01:27:38;;;;;;;16.40;4.28;;;8.10;99.90;;;;;;5093219;28;20162;-52
2023/12/09 01:30:04;;;;;;;14.68;3.25;;;8.00;99.90;;;;;;5092355;28;20197;-51
2023/12/09 01:32:29;;;;;;;13.98;3.97;;;8.10;99.90;;;;;;5092745;28;20501;-49
2023/12/09 01:34:56;;;;;;;10.35;3.40;;;8.10;99.90;;;;;;5092392;28;20169;-46
2023/12/09 01:37:22;;;;;;;17.23;3.55;;;8.00;99.90;;;;;;5092789;28;20178;-48
2023/12/09 01:39:47;;;;;;;10.10;3.67;;;8.00;99.90;;;;;;5092659;28;20169;-46
2023/12/09 01:42:13;;;;;;;11.80;3.40;;;7.90;99.90;;;;;;5074582;28;20172;-47
2023/12/09 01:44:39;;;;;;;14.35;3.70;;;8.00;99.90;;;;;;5092346;28;20625;-46
2023/12/09 01:47:05;;;;;;;16.50;4.05;;;7.90;99.90;;;;;;5074552;28;20584;-46
2023/12/09 01:49:31;;;;;;;16.35;3.13;;;8.00;99.90;;;;;;5108257;28;20295;-46
2023/12/09 01:51:59;;;;;;;14.93;3.60;;;7.90;99.90;;;;;;5112161;28;20675;-46
2023/12/09 01:54:25;;;;;;;11.38;3.63;;;7.90;99.90;;;;;;5112381;28;20169;-45
2023/12/09 01:56:51;;;;;;;12.48;3.60;;;7.90;99.90;;;;;;5112324;28;20527;-46
2023/12/09 01:59:17;;;;;;;15.88;3.72;;;7.80;99.90;;;;;;5097780;28;20177;-46
2023/12/09 02:01:44;;;;;;;10.73;3.60;;;7.70;99.90;;;;;;5091812;28;20169;-48
2023/12/09 02:04:10;;;;;;;12.48;3.85;;;7.70;99.90;;;;;;5091970;28;20189;-45
2023/12/09 02:06:35;;;;;;;9.23;3.10;;;7.70;99.90;;;;;;5092231;28;20177;-46
2023/12/09 02:09:01;;;;;;;11.15;3.70;;;7.60;99.90;;;;;;5091073;28;20215;-47
2023/12/09 02:11:43;;;;;;;12.73;3.60;;;7.70;99.90;;;;;;5091851;28;20169;-46
2023/12/09 02:15:00;;;;;;;12.63;3.97;;;7.50;99.90;;;;;;5091660;28;20644;-46
2023/12/09 02:17:49;;;;;;;12.48;3.45;;;7.60;99.90;;;;;;5046668;28;20189;-48
2023/12/09 02:20:14;;;;;;;14.18;4.22;;;7.50;99.90;;;;;;5091567;28;20223;-47
2023/12/09 02:22:40;;;;;;;13.70;3.50;;;7.50;99.90;;;;;;5091592;28;20165;-45
2023/12/09 02:25:06;;;;;;;13.10;3.30;;;7.40;99.90;;;;;;5093298;28;20177;-47
2023/12/09 02:27:53;;;;;;;11.05;3.33;;;7.40;99.90;;;;;;5092024;28;20173;-46
2023/12/09 02:30:25;;;;;;;10.68;3.20;;;7.30;99.90;;;;;;5091544;28;20253;-46
2023/12/09 02:32:55;;;;;;;20.70;4.68;;;7.30;99.90;;;;;;5091391;28;20188;-45
2023/12/09 02:35:24;;;;;;;17.30;4.70;;;7.50;99.90;;;;;;5091517;28;20617;-45
2023/12/09 02:37:51;;;;;;;14.43;3.67;;;7.50;99.90;;;;;;5107911;28;20282;-46
2023/12/09 02:40:18;;;;;;;12.95;4.35;;;7.50;99.90;;;;;;5091369;28;20168;-49
2023/12/09 02:42:44;;;;;;;16.52;3.75;;;7.60;99.90;;;;;;5091257;28;20504;-51
2023/12/09 02:45:11;;;;;;;14.23;4.32;;;7.50;99.90;;;;;;5091172;28;20157;-55
2023/12/09 02:47:36;;;;;;;17.98;5.05;;;7.70;99.90;;;;;;5091932;28;20173;-52
2023/12/09 02:50:02;;;;;;;13.90;3.65;;;7.60;99.90;;;;;;5091076;28;20292;-52
2023/12/09 02:52:28;;;;;;;10.63;3.58;;;7.80;99.90;;;;;;5090996;28;20225;-52
2023/12/09 02:54:54;;;;;;;13.25;3.92;;;7.70;99.90;;;;;;5091018;28;20168;-51
2023/12/09 02:57:19;;;;;;;15.32;3.90;;;7.80;99.90;;;;;;5091265;28;20879;-50
2023/12/09 02:59:45;;;;;;;15.43;3.90;;;7.70;99.90;;;;;;5073042;28;20242;-51
2023/12/09 03:02:10;;;;;;;11.57;3.53;;;7.60;99.90;;;;;;5090850;28;20204;-50
2023/12/09 03:04:36;;;;;;;13.63;3.83;;;7.60;99.90;;;;;;5091474;28;20165;-52
2023/12/09 03:07:02;;;;;;;15.07;3.53;;;7.50;99.90;;;;;;5103543;28;20172;-52
2023/12/09 03:09:27;;;;;;;12.23;3.35;;;7.50;99.90;;;;;;5111654;28;20676;-52
2023/12/09 03:11:53;;;;;;;9.75;3.08;;;7.30;99.90;;;;;;5111173;28;20165;-51
2023/12/09 03:14:18;;;;;;;11.35;3.13;;;7.30;99.90;;;;;;5111263;28;20164;-52
2023/12/09 03:16:44;;;;;;;16.40;3.78;;;7.30;99.90;;;;;;5101257;28;20176;-51
2023/12/09 03:19:09;;;;;;;12.57;3.75;;;7.40;99.90;;;;;;5091806;28;20284;-50
2023/12/09 03:21:35;;;;;;;10.48;3.70;;;7.50;99.90;;;;;;5095338;28;20580;-51
2023/12/09 03:24:01;;;;;;;13.40;3.80;;;7.50;99.90;;;;;;5094949;28;20583;-52
2023/12/09 03:26:27;;;;;;;14.55;3.63;;;7.50;99.90;;;;;;5095327;28;20201;-52
2023/12/09 03:28:52;;;;;;;7.05;3.17;;;7.40;99.90;;;;;;5094823;28;20224;-51
2023/12/09 03:31:19;;;;;;;13.82;3.60;;;7.20;99.90;;;;;;5094896;28;20621;-52
2023/12/09 03:33:44;;;;;;;11.88;3.33;;;7.20;99.90;;;;;;5094889;28;20175;-49
2023/12/09 03:36:14;;;;;;;9.95;3.50;;;7.10;99.90;;;;;;5099211;28;20168;-53
2023/12/09 03:38:40;;;;;;;7.93;2.80;;;7.00;99.90;;;;;;5115123;28;20188;-51
2023/12/09 03:41:06;;;;;;;7.55;2.58;;;7.00;99.90;;;;;;5115568;28;20521;-53
2023/12/09 03:43:32;;;;;;;8.52;2.97;;;6.80;99.90;;;;;;5114883;28;20165;-53
2023/12/09 03:45:58;;;;;;;12.30;3.13;;;6.90;99.90;;;;;;5098552;28;20177;-52
2023/12/09 03:48:28;;;;;;;9.95;3.97;;;6.70;99.90;;;;;;5094478;28;20215;-53
2023/12/09 03:50:54;;;;;;;7.28;2.92;;;6.80;99.90;;;;;;5094416;28;20161;-52
2023/12/09 03:53:20;;;;;;;11.48;3.80;;;6.70;99.90;;;;;;5094192;28;20239;-53
2023/12/09 03:55:45;;;;;;;6.68;2.83;;;6.70;99.90;;;;;;5108487;28;20529;-53
2023/12/09 03:58:11;;;;;;;11.18;3.20;;;6.70;99.90;;;;;;5114813;28;20165;-52
2023/12/09 04:00:36;;;;;;;8.07;2.88;;;6.70;99.90;;;;;;5114853;28;20191;-49
2023/12/09 04:03:03;;;;;;;12.02;2.85;;;6.60;99.90;;;;;;5114578;28;20169;-52
2023/12/09 04:05:29;;;;;;;16.00;3.20;;;6.60;99.90;;;;;;5102545;28;20678;-51
2023/12/09 04:07:54;;;;;;;9.93;3.22;;;6.50;99.90;;;;;;5094386;28;20169;-53
2023/12/09 04:10:20;;;;;;;9.70;3.53;;;6.60;99.90;;;;;;5094062;28;20177;-52
2023/12/09 04:12:45;;;;;;;13.52;3.35;;;6.70;99.90;;;;;;5094047;28;20248;-52
2023/12/09 04:15:11;;;;;;;12.15;3.45;;;6.50;99.90;;;;;;5094345;28;20260;-47
2023/12/09 04:17:37;;;;;;;8.68;2.90;;;6.80;99.90;;;;;;5094443;28;20165;-49
2023/12/09 04:20:10;;;;;;;9.57;3.42;;;6.70;99.90;;;;;;5093738;28;20169;-52
2023/12/09 04:22:39;;;;;;;8.00;3.00;;;6.60;99.90;;;;;;5094305;28;20165;-52
2023/12/09 04:25:08;;;;;;;11.50;3.60;;;6.70;99.90;;;;;;5101876;28;20172;-52
2023/12/09 04:27:34;;;;;;;12.18;3.20;;;6.60;99.90;;;;;;5102070;28;20245;-52
2023/12/09 04:30:00;;;;;;;8.63;2.97;;;6.60;99.90;;;;;;5093477;28;20740;-52
2023/12/09 04:32:29;;;;;;;6.75;2.80;;;6.70;99.90;;;;;;5092964;28;20522;-45
2023/12/09 04:34:55;;;;;;;9.77;3.55;;;6.60;99.90;;;;;;5099868;28;20169;-52
2023/12/09 04:37:22;;;;;;;11.07;2.80;;;6.60;99.90;;;;;;5113862;28;20185;-47
2023/12/09 04:39:48;;;;;;;9.77;3.55;;;6.60;99.90;;;;;;5114231;28;20172;-51
2023/12/09 04:42:13;;;;;;;9.38;3.05;;;6.70;99.90;;;;;;5113866;28;20169;-49
2023/12/09 04:44:39;;;;;;;12.45;4.07;;;6.70;99.90;;;;;;5109779;28;20244;-43
2023/12/09 04:47:04;;;;;;;6.70;2.78;;;6.70;99.90;;;;;;5093601;28;20181;-51
2023/12/09 04:49:30;;;;;;;8.65;3.03;;;6.60;99.90;;;;;;5093540;28;20676;-53
2023/12/09 04:51:55;;;;;;;11.30;2.90;;;6.70;99.90;;;;;;5074948;28;20255;-53
2023/12/09 04:54:21;;;;;;;14.82;3.90;;;6.60;99.90;;;;;;5094097;28;20177;-52
2023/12/09 04:56:46;;;;;;;14.18;3.50;;;6.60;99.90;;;;;;5113282;28;20194;-47
2023/12/09 04:59:12;;;;;;;7.18;3.03;;;6.60;99.90;;;;;;5113720;28;20182;-50
2023/12/09 05:01:37;;;;;;;13.95;3.25;;;6.60;99.90;;;;;;5114158;28;20616;-50
2023/12/09 05:04:03;;;;;;;7.22;2.83;;;6.70;99.90;;;;;;5113394;28;20176;-51
2023/12/09 05:06:29;;;;;;;12.63;4.00;;;6.70;99.90;;;;;;5094234;28;20173;-50
2023/12/09 05:08:54;;;;;;;13.13;2.97;;;6.70;99.90;;;;;;5092839;28;20209;-51
2023/12/09 05:11:20;;;;;;;7.30;2.63;;;6.70;99.90;;;;;;5092832;28;20194;-50
2023/12/09 05:13:45;;;;;;;8.60;2.58;;;6.50;99.90;;;;;;5092954;28;20244;-50
2023/12/09 05:16:11;;;;;;;8.38;2.38;;;6.50;99.90;;;;;;5108747;28;20176;-50
2023/12/09 05:18:36;;;;;;;10.18;2.67;;;6.50;99.90;;;;;;5113652;28;20528;-52
2023/12/09 05:21:04;;;;;;;11.07;2.80;;;6.60;99.90;;;;;;5113095;28;20651;-52
2023/12/09 05:23:30;;;;;;;7.43;2.28;;;6.40;99.90;;;;;;5113275;28;20169;-50
2023/12/09 05:25:56;;;;;;;7.97;3.03;;;6.50;99.90;;;;;;5098862;28;20183;-50
2023/12/09 05:28:21;;;;;;;9.50;2.63;;;6.40;99.90;;;;;;5092435;28;20313;-48
2023/12/09 05:30:48;;;;;;;10.85;2.47;;;6.20;99.90;;;;;;5092810;28;20173;-53
2023/12/09 05:33:13;;;;;;;11.10;3.00;;;6.40;99.90;;;;;;5092734;28;20185;-50
2023/12/09 05:35:39;;;;;;;11.57;3.22;;;6.30;99.90;;;;;;5093867;28;20176;-46
2023/12/09 05:38:04;;;;;;;10.18;2.85;;;6.20;99.90;;;;;;5106937;28;20686;-48
2023/12/09 05:40:30;;;;;;;13.95;5.10;;;6.30;99.90;;;;;;5112731;28;20226;-51
2023/12/09 05:42:56;;;;;;;8.25;3.60;;;6.20;99.90;;;;;;5112540;28;20164;-50
2023/12/09 05:45:21;;;;;;;9.50;2.90;;;6.30;99.90;;;;;;5104108;28;20271;-49
2023/12/09 05:47:47;;;;;;;7.35;2.40;;;6.30;99.90;;;;;;5092061;28;20158;-50
2023/12/09 05:50:12;;;;;;;5.90;2.22;;;6.40;99.90;;;;;;5092188;28;20509;-50
2023/12/09 05:52:40;;;;;;;5.97;2.55;;;6.30;99.90;;;;;;5092393;28;20224;-51
2023/12/09 05:55:06;;;;;;;4.60;2.22;;;6.40;99.90;;;;;;5098225;28;20666;-50
2023/12/09 05:57:32;;;;;;;6.68;2.42;;;6.30;99.90;;;;;;5112329;28;20176;-50
2023/12/09 05:59:58;;;;;;;12.23;3.17;;;6.40;99.90;;;;;;5112299;28;20261;-50
2023/12/09 06:02:23;;;;;;;11.98;4.90;;;6.40;99.90;;;;;;5112526;28;20165;-49
2023/12/09 06:04:49;;;;;;;109.78;44.88;;;6.20;99.90;;;;;;5108454;28;20661;-51
2023/12/09 06:07:14;;;;;;;77.95;31.30;;;6.30;99.90;;;;;;5098340;28;20168;-50
2023/12/09 06:09:40;;;;;;;40.70;17.75;;;6.30;99.90;;;;;;5112135;28;20255;-50
2023/12/09 06:12:06;;;;;;;13.90;7.03;;;6.30;99.90;;;;;;5112757;28;20172;-50
2023/12/09 06:14:32;;;;;;;18.70;6.78;;;6.00;99.90;;;;;;5111030;28;20173;-50
2023/12/09 06:16:57;;;;;;;22.85;10.90;;;6.00;99.90;;;;;;5096408;28;20180;-50
2023/12/09 06:19:23;;;;;;;44.50;18.77;;;5.90;99.90;;;;;;5111948;28;20172;-49
2023/12/09 06:21:48;;;;;;;92.20;40.80;;;5.90;99.90;;;;;;5112209;28;20169;-50
2023/12/09 06:24:14;;;;;;;135.10;63.05;;;5.70;99.90;;;;;;5111949;28;20176;-46
2023/12/09 06:26:44;;;;;;;44.92;23.52;;;5.60;99.90;;;;;;5093449;28;20181;-50
2023/12/09 06:29:13;;;;;;;66.97;34.72;;;5.60;99.90;;;;;;5091487;28;20228;-51
2023/12/09 06:31:39;;;;;;;22.52;12.30;;;5.60;99.90;;;;;;5091397;28;20157;-50
2023/12/09 06:34:04;;;;;;;28.10;14.75;;;5.70;99.90;;;;;;5091797;28;20790;-50
2023/12/09 06:36:30;;;;;;;24.48;10.18;;;5.60;99.90;;;;;;5108217;28;20263;-49
2023/12/09 06:38:55;;;;;;;27.42;14.65;;;5.70;99.90;;;;;;5111627;28;20693;-51
2023/12/09 06:41:21;;;;;;;71.35;45.33;;;5.60;99.90;;;;;;5111727;28;20172;-51
2023/12/09 06:43:46;;;;;;;16.92;8.70;;;5.50;99.90;;;;;;5111525;28;20559;-51
2023/12/09 06:46:12;;;;;;;22.58;13.75;;;5.80;99.90;;;;;;5096900;28;20517;-51
2023/12/09 06:48:38;;;;;;;19.20;13.75;;;5.60;99.90;;;;;;5091395;28;20200;-51
2023/12/09 06:51:06;;;;;;;11.20;4.95;;;6.80;99.90;;;;;;5091476;28;20183;-51
2023/12/09 06:53:32;;;;;;;8.75;3.63;;;5.80;99.90;;;;;;5090514;28;20173;-50
2023/12/09 06:55:58;;;;;;;11.40;4.57;;;6.00;99.90;;;;;;5084603;28;20255;-51
2023/12/09 06:58:24;;;;;;;13.70;3.95;;;6.10;99.90;;;;;;5111641;28;20165;-51
2023/12/09 07:00:50;;;;;;;7.32;3.47;;;6.10;99.90;;;;;;5111598;28;20542;-51
2023/12/09 07:03:15;;;;;;;6.63;2.97;;;6.00;99.90;;;;;;5111406;28;20157;-50
2023/12/09 07:05:41;;;;;;;11.82;3.85;;;6.10;99.90;;;;;;5107454;28;20216;-50
2023/12/09 07:08:09;;;;;;;9.77;3.50;;;5.90;99.90;;;;;;5111771;28;20191;-53
2023/12/09 07:10:35;;;;;;;9.27;5.68;;;6.00;99.90;;;;;;5111640;28;20632;-53
2023/12/09 07:13:00;;;;;;;10.82;2.95;;;6.10;99.90;;;;;;5110089;28;20176;-53
2023/12/09 07:15:26;;;;;;;12.25;6.80;;;6.00;99.90;;;;;;5104050;28;20176;-52
2023/12/09 07:17:52;;;;;;;6.97;3.15;;;6.00;99.90;;;;;;5091113;28;20177;-52
2023/12/09 07:20:17;;;;;;;13.07;4.28;;;6.20;99.90;;;;;;5091159;28;20165;-50
2023/12/09 07:22:43;;;;;;;10.55;5.95;;;6.20;99.90;;;;;;5090647;28;20169;-53
2023/12/09 07:25:08;;;;;;;14.73;6.07;;;6.00;99.90;;;;;;5091415;28;20200;-51
2023/12/09 07:27:34;;;;;;;9.02;2.97;;;6.00;99.90;;;;;;5091013;28;20169;-53
2023/12/09 07:30:00;;;;;;;7.45;4.18;;;6.10;99.90;;;;;;5090713;28;20204;-52
2023/12/09 07:32:27;;;;;;;15.80;5.30;;;6.20;99.90;;;;;;5090952;28;20173;-53
2023/12/09 07:34:52;;;;;;;6.22;2.50;;;6.00;99.90;;;;;;5090885;28;20652;-49
2023/12/09 07:37:18;;;;;;;5.75;3.05;;;6.00;99.90;;;;;;5091026;28;20180;-48
2023/12/09 07:39:43;;;;;;;8.52;3.30;;;6.20;99.90;;;;;;5090636;28;20632;-49
2023/12/09 07:42:09;;;;;;;6.50;2.67;;;6.20;99.90;;;;;;5090886;28;20593;-50
2023/12/09 07:44:35;;;;;;;15.18;5.75;;;6.20;99.90;;;;;;5090998;28;20260;-49
2023/12/09 07:47:01;;;;;;;11.85;3.08;;;6.20;99.90;;;;;;5109983;28;20263;-49
2023/12/09 07:49:26;;;;;;;8.98;3.08;;;6.30;99.90;;;;;;5110860;28;20534;-51
2023/12/09 07:51:52;;;;;;;11.48;3.95;;;6.30;99.90;;;;;;5110798;28;20258;-49
2023/12/09 07:54:17;;;;;;;13.70;6.40;;;6.10;99.90;;;;;;5100417;28;20186;-47
2023/12/09 07:56:43;;;;;;;6.30;2.50;;;6.40;99.90;;;;;;5090531;28;20169;-48
2023/12/09 07:59:08;;;;;;;12.32;5.10;;;6.30;99.90;;;;;;5090398;28;20169;-47
2023/12/09 08:01:35;;;;;;;9.13;2.92;;;6.40;99.90;;;;;;5091216;28;20171;-46
2023/12/09 08:04:00;;;;;;;9.63;4.05;;;6.40;99.90;;;;;;5097434;28;20579;-49
2023/12/09 08:06:26;;;;;;;12.73;4.07;;;6.30;99.90;;;;;;5111458;28;20168;-47
2023/12/09 08:08:51;;;;;;;9.48;3.25;;;6.30;99.90;;;;;;5114497;28;20210;-50
2023/12/09 08:11:19;;;;;;;8.93;4.78;;;6.10;99.90;;;;;;5114763;28;20206;-50
2023/12/09 08:13:44;;;;;;;9.00;3.42;;;6.10;99.90;;;;;;5110210;28;20223;-52
2023/12/09 08:16:10;;;;;;;6.78;3.67;;;6.20;99.90;;;;;;5093949;28;20213;-47
2023/12/09 08:18:35;;;;;;;8.30;3.53;;;6.00;99.90;;;;;;5094450;28;20169;-50
2023/12/09 08:21:01;;;;;;;9.80;3.53;;;6.10;99.90;;;;;;5093932;28;20168;-50
2023/12/09 08:23:27;;;;;;;8.98;4.03;;;6.00;99.90;;;;;;5094289;28;20209;-50
2023/12/09 08:25:53;;;;;;;6.18;4.05;;;6.20;99.90;;;;;;5093936;28;20621;-49
2023/12/09 08:28:19;;;;;;;7.72;3.80;;;6.10;99.90;;;;;;5093529;28;20671;-46
2023/12/09 08:30:46;;;;;;;8.82;4.25;;;6.00;99.90;;;;;;5093662;28;20715;-47
2023/12/09 08:33:12;;;;;;;13.23;5.75;;;6.00;99.90;;;;;;5093474;28;20173;-45
2023/12/09 08:35:38;;;;;;;12.45;4.32;;;6.00;99.90;;;;;;5113036;28;20591;-45
2023/12/09 08:38:03;;;;;;;13.52;4.95;;;6.10;99.90;;;;;;5114259;28;20244;-48
2023/12/09 08:40:29;;;;;;;12.20;4.93;;;6.30;99.90;;;;;;5114003;28;20168;-46
2023/12/09 08:42:55;;;;;;;11.23;4.70;;;6.20;99.90;;;;;;5113804;28;20243;-48
2023/12/09 08:45:20;;;;;;;6.70;4.10;;;6.30;99.90;;;;;;5097145;28;20204;-50
2023/12/09 08:47:46;;;;;;;9.88;3.80;;;6.30;99.90;;;;;;5075331;28;20211;-48
2023/12/09 08:50:12;;;;;;;8.10;4.20;;;6.40;99.90;;;;;;5093429;28;20300;-50
2023/12/09 08:52:38;;;;;;;11.60;4.63;;;6.40;99.90;;;;;;5093170;28;20209;-47
2023/12/09 08:55:04;;;;;;;12.20;4.45;;;6.30;99.90;;;;;;5107283;28;20701;-49
2023/12/09 08:57:30;;;;;;;5.43;3.80;;;6.50;99.90;;;;;;5113478;28;20203;-50
2023/12/09 08:59:55;;;;;;;11.07;4.18;;;6.40;99.90;;;;;;5113522;28;20165;-50
2023/12/09 09:02:21;;;;;;;14.77;6.25;;;6.50;99.90;;;;;;5113552;28;20218;-51
2023/12/09 09:04:47;;;;;;;11.88;5.03;;;6.60;99.90;;;;;;5102475;28;20169;-50
2023/12/09 09:07:13;;;;;;;8.98;4.65;;;6.50;99.90;;;;;;5093389;28;20523;-50
2023/12/09 09:09:39;;;;;;;6.05;3.05;;;6.60;99.90;;;;;;5092851;28;20213;-50
2023/12/09 09:12:06;;;;;;;7.30;2.75;;;6.80;99.90;;;;;;5093651;28;20543;-50
2023/12/09 09:14:33;;;;;;;8.88;2.90;;;6.90;99.90;;;;;;5093278;28;20208;-49
2023/12/09 09:16:59;;;;;;;10.50;2.97;;;6.90;99.90;;;;;;5092397;28;20637;-49
2023/12/09 09:19:25;;;;;;;11.32;3.47;;;7.10;99.90;;;;;;5094059;28;20218;-50
2023/12/09 09:21:52;;;;;;;7.50;2.67;;;7.30;99.90;;;;;;5092710;28;20178;-50
2023/12/09 09:24:18;;;;;;;8.48;2.60;;;7.40;99.90;;;;;;5092890;28;20169;-50
2023/12/09 09:26:44;;;;;;;8.52;3.70;;;7.50;99.90;;;;;;5092468;28;20162;-43
2023/12/09 09:29:10;;;;;;;8.93;4.88;;;7.40;99.90;;;;;;5101769;28;20663;-44
2023/12/09 09:31:36;;;;;;;12.07;4.60;;;7.40;99.90;;;;;;5113057;28;20252;-46
2023/12/09 09:34:01;;;;;;;16.30;6.18;;;7.40;99.90;;;;;;5112665;28;20268;-45
2023/12/09 09:36:27;;;;;;;11.23;5.15;;;7.20;99.90;;;;;;5112905;28;20505;-45
2023/12/09 09:38:53;;;;;;;23.00;5.28;;;7.40;99.90;;;;;;5105193;28;20178;-44
2023/12/09 09:41:56;;;;;;;11.98;4.38;;;7.40;99.90;;;;;;5092208;28;20165;-44
2023/12/09 09:44:26;;;;;;;9.02;4.47;;;7.30;99.90;;;;;;5087789;28;20714;-44
2023/12/09 09:46:56;;;;;;;6.78;3.53;;;7.30;99.90;;;;;;5092015;28;20547;-44
2023/12/09 09:49:24;;;;;;;10.38;3.80;;;7.40;99.90;;;;;;5102613;28;20204;-44
2023/12/09 09:51:53;;;;;;;9.30;4.00;;;7.40;99.90;;;;;;5112369;28;20676;-46
2023/12/09 09:54:26;;;;;;;13.07;5.07;;;7.70;99.90;;;;;;5112388;28;20171;-45
2023/12/09 09:56:51;;;;;;;12.20;6.57;;;7.50;99.90;;;;;;5112379;28;20168;-51
2023/12/09 09:59:18;;;;;;;14.55;5.55;;;7.50;99.90;;;;;;5102231;28;20187;-50
2023/12/09 10:01:44;;;;;;;6.57;3.90;;;7.60;99.90;;;;;;5092179;28;20218;-53
2023/12/09 10:04:11;;;;;;;13.60;5.95;;;7.60;99.90;;;;;;5091878;28;20165;-50
2023/12/09 10:06:36;;;;;;;10.93;5.68;;;7.50;99.90;;;;;;5092426;28;20165;-50
2023/12/09 10:09:03;;;;;;;9.80;4.45;;;7.60;99.90;;;;;;5092001;28;20789;-51
2023/12/09 10:11:29;;;;;;;14.18;6.25;;;7.60;99.90;;;;;;5091788;28;20636;-50
2023/12/09 10:13:55;;;;;;;16.70;5.38;;;7.60;99.90;;;;;;5092238;28;20193;-51
2023/12/09 10:16:21;;;;;;;9.73;4.03;;;7.70;99.90;;;;;;5092351;28;20204;-51
2023/12/09 10:18:47;;;;;;;14.45;3.72;;;7.90;99.90;;;;;;5097398;28;20222;-51
2023/12/09 10:21:16;;;;;;;17.73;4.55;;;8.00;99.90;;;;;;5112383;28;20286;-51
2023/12/09 10:23:44;;;;;;;7.90;2.80;;;8.00;99.90;;;;;;5112625;28;20164;-51
2023/12/09 10:26:10;;;;;;;14.05;4.07;;;8.40;99.90;;;;;;5112444;28;20644;-51
2023/12/09 10:28:36;;;;;;;12.60;2.70;;;8.70;99.90;;;;;;5110652;28;20205;-51
2023/12/09 10:31:02;;;;;;;14.13;2.97;;;8.90;99.90;;;;;;5112348;28;20161;-47
2023/12/09 10:33:34;;;;;;;9.68;3.00;;;9.00;99.90;;;;;;5112343;28;20192;-51
2023/12/09 10:36:00;;;;;;;10.10;2.63;;;9.10;99.90;;;;;;5112304;28;20677;-51
2023/12/09 10:38:27;;;;;;;9.60;3.10;;;9.10;99.90;;;;;;5110894;28;20172;-51
2023/12/09 10:40:55;;;;;;;12.02;3.20;;;9.20;99.90;;;;;;5091799;28;20181;-51
2023/12/09 10:43:21;;;;;;;10.27;2.97;;;9.20;99.90;;;;;;5091962;28;20173;-51
2023/12/09 10:45:47;;;;;;;18.15;4.07;;;9.20;99.90;;;;;;5091824;28;20218;-51
2023/12/09 10:48:13;;;;;;;13.20;3.08;;;9.20;99.90;;;;;;5091892;28;20214;-51
2023/12/09 10:50:39;;;;;;;16.40;3.47;;;9.20;99.90;;;;;;5092196;28;20521;-51
2023/12/09 10:53:05;;;;;;;13.57;3.00;;;9.20;99.90;;;;;;5091929;28;20269;-51
2023/12/09 10:55:31;;;;;;;9.23;2.92;;;9.10;99.90;;;;;;5091666;28;20208;-51
2023/12/09 10:57:58;;;;;;;8.73;2.50;;;9.00;99.90;;;;;;5091564;28;20197;-51
2023/12/09 11:00:25;;;;;;;9.70;2.50;;;9.00;99.90;;;;;;5092125;28;20634;-51
2023/12/09 11:02:52;;;;;;;11.07;2.78;;;9.00;99.90;;;;;;5091774;28;20180;-50
2023/12/09 11:05:19;;;;;;;7.55;2.58;;;8.90;99.90;;;;;;5091525;28;20592;-51
2023/12/09 11:07:47;;;;;;;11.77;2.95;;;8.90;99.90;;;;;;5091799;28;20169;-51
2023/12/09 11:10:13;;;;;;;8.35;3.13;;;8.90;99.90;;;;;;5106970;28;20212;-50
2023/12/09 11:12:41;;;;;;;8.63;2.30;;;8.80;99.90;;;;;;5111790;28;20636;-50
2023/12/09 11:15:13;;;;;;;6.28;2.25;;;8.70;99.90;;;;;;5112492;28;20169;-49
2023/12/09 11:17:47;;;;;;;7.60;2.75;;;8.80;99.90;;;;;;5111656;28;20635;-51
2023/12/09 11:20:21;;;;;;;12.32;2.42;;;8.80;99.90;;;;;;5095714;28;20187;-49
2023/12/09 11:22:47;;;;;;;10.77;2.70;;;8.70;99.90;;;;;;5091418;28;20168;-50
2023/12/09 11:25:19;;;;;;;10.95;2.72;;;8.70;99.90;;;;;;5091371;28;20570;-51
2023/12/09 11:27:49;;;;;;;11.52;3.15;;;8.70;99.90;;;;;;5091597;28;20210;-51
2023/12/09 11:30:30;;;;;;;6.68;1.92;;;8.70;99.90;;;;;;5106430;28;20200;-49
2023/12/09 11:32:56;;;;;;;11.00;2.30;;;8.60;99.90;;;;;;5111804;28;20164;-51
2023/12/09 11:35:24;;;;;;;12.05;2.33;;;8.60;99.90;;;;;;5111893;28;20226;-48
2023/12/09 11:37:51;;;;;;;4.93;1.98;;;8.60;99.90;;;;;;5093295;28;20200;-50
2023/12/09 11:40:17;;;;;;;9.02;2.83;;;8.70;99.90;;;;;;5097234;28;20532;-50
2023/12/09 11:42:44;;;;;;;13.07;2.92;;;8.70;99.90;;;;;;5095142;28;20165;-51
2023/12/09 11:45:10;;;;;;;9.48;2.45;;;8.60;99.90;;;;;;5094782;28;20162;-50
2023/12/09 11:47:38;;;;;;;7.28;2.20;;;8.60;99.90;;;;;;5095423;28;20176;-48
2023/12/09 11:50:05;;;;;;;7.05;2.13;;;6.20;99.90;;;;;;5108500;28;20633;-49
2023/12/09 11:52:31;;;;;;;7.97;2.25;;;8.70;99.90;;;;;;5115075;28;20209;-50
2023/12/09 11:55:00;;;;;;;6.85;2.97;;;8.70;99.90;;;;;;5115236;28;20187;-48
2023/12/09 11:57:33;;;;;;;11.48;2.45;;;8.80;99.90;;;;;;5115119;28;20161;-47
2023/12/09 11:59:59;;;;;;;6.13;2.00;;;8.80;99.90;;;;;;5102420;28;20332;-51
2023/12/09 12:02:24;;;;;;;7.90;2.80;;;8.90;99.90;;;;;;5095099;28;20261;-49
2023/12/09 12:04:50;;;;;;;9.93;2.92;;;9.00;99.90;;;;;;5094716;28;20552;-49
2023/12/09 12:07:15;;;;;;;9.52;2.38;;;9.00;99.90;;;;;;5094895;28;20173;-49
2023/12/09 12:09:41;;;;;;;9.02;2.67;;;8.90;99.90;;;;;;5104230;28;20679;-51
2023/12/09 12:12:07;;;;;;;8.35;2.15;;;8.80;99.90;;;;;;5115061;28;20156;-45
2023/12/09 12:14:33;;;;;;;7.95;2.10;;;8.90;99.90;;;;;;5115020;28;20647;-51
2023/12/09 12:16:59;;;;;;;8.70;1.98;;;8.80;99.90;;;;;;5115182;28;20176;-51
2023/12/09 12:19:29;;;;;;;6.18;2.45;;;8.70;99.90;;;;;;5107548;28;20176;-49
2023/12/09 12:21:55;;;;;;;7.80;1.70;;;8.70;99.90;;;;;;5094659;28;20197;-50
2023/12/09 12:24:21;;;;;;;5.60;1.90;;;8.70;99.90;;;;;;5094348;28;20157;-49
2023/12/09 12:26:47;;;;;;;7.97;2.22;;;8.60;99.90;;;;;;5097567;28;20173;-49
2023/12/09 12:29:23;;;;;;;6.88;1.85;;;8.70;99.90;;;;;;5104272;28;20742;-47
2023/12/09 12:31:50;;;;;;;10.07;2.50;;;8.70;99.90;;;;;;5103718;28;20184;-48
2023/12/09 12:34:18;;;;;;;5.75;1.95;;;8.70;99.90;;;;;;5104812;28;20172;-43
2023/12/09 12:36:48;;;;;;;4.15;2.03;;;8.70;99.90;;;;;;5102082;28;20200;-43
2023/12/09 12:39:15;;;;;;;4.95;1.88;;;8.70;99.90;;;;;;5102261;28;20233;-47
2023/12/09 12:41:43;;;;;;;4.90;1.98;;;8.60;99.90;;;;;;5103936;28;20167;-50
2023/12/09 12:44:11;;;;;;;6.53;1.80;;;8.60;99.90;;;;;;5103721;28;20169;-47
2023/12/09 12:46:36;;;;;;;4.65;1.77;;;8.60;99.90;;;;;;5105736;28;20523;-49